sensor_id;sensor_type;location;lat;lon;timestamp;pressure;altitude;pressure_sealevel;temperature;humidity
804;BME280;25687;49.976;8.240;2022-12-07T00:00:55;100245.28;;;2.94;100.00
804;BME280;25687;49.976;8.240;2022-12-07T00:03:23;100247.78;;;2.97;100.00
804;BME280;25687;49.976;8.240;2022-12-07T00:05:48;100246.00;;;2.99;100.00
804;BME280;25687;49.976;8.240;2022-12-07T00:08:13;100244.63;;;2.85;100.00
804;BME280;25687;49.976;8.240;2022-12-07T00:10:39;100233.59;;;2.85;100.00
804;BME280;25687;49.976;8.240;2022-12-07T00:13:04;100225.84;;;2.91;100.00
804;BME280;25687;49.976;8.240;2022-12-07T00:15:30;100225.06;;;2.87;100.00
804;BME280;25687;49.976;8.240;2022-12-07T00:18:04;100226.72;;;2.92;100.00
804;BME280;25687;49.976;8.240;2022-12-07T00:20:35;100231.03;;;2.86;100.00
804;BME280;25687;49.976;8.240;2022-12-07T00:23:00;100231.78;;;2.90;100.00
804;BME280;25687;49.976;8.240;2022-12-07T00:25:26;100231.19;;;2.79;100.00
804;BME280;25687;49.976;8.240;2022-12-07T00:27:52;100230.00;;;2.95;100.00
804;BME280;25687;49.976;8.240;2022-12-07T00:30:21;100217.94;;;3.05;100.00
804;BME280;25687;49.976;8.240;2022-12-07T00:32:46;100213.59;;;3.10;100.00
804;BME280;25687;49.976;8.240;2022-12-07T00:35:14;100208.66;;;3.04;100.00
804;BME280;25687;49.976;8.240;2022-12-07T00:37:40;100204.44;;;3.03;100.00
804;BME280;25687;49.976;8.240;2022-12-07T00:40:06;100197.53;;;3.08;100.00
804;BME280;25687;49.976;8.240;2022-12-07T00:42:31;100194.06;;;3.12;100.00
804;BME280;25687;49.976;8.240;2022-12-07T00:44:56;100193.41;;;3.02;100.00
804;BME280;25687;49.976;8.240;2022-12-07T00:47:25;100185.69;;;3.07;100.00
804;BME280;25687;49.976;8.240;2022-12-07T00:49:50;100184.28;;;2.94;100.00
804;BME280;25687;49.976;8.240;2022-12-07T00:52:18;100180.03;;;2.96;100.00
804;BME280;25687;49.976;8.240;2022-12-07T00:54:44;100190.09;;;3.00;100.00
804;BME280;25687;49.976;8.240;2022-12-07T00:57:09;100196.00;;;3.01;100.00
804;BME280;25687;49.976;8.240;2022-12-07T00:59:35;100191.09;;;2.93;100.00
804;BME280;25687;49.976;8.240;2022-12-07T01:02:00;100184.47;;;2.86;100.00
804;BME280;25687;49.976;8.240;2022-12-07T01:04:25;100198.50;;;2.62;100.00
804;BME280;25687;49.976;8.240;2022-12-07T01:06:51;100200.13;;;2.66;100.00
804;BME280;25687;49.976;8.240;2022-12-07T01:09:17;100200.91;;;2.68;100.00
804;BME280;25687;49.976;8.240;2022-12-07T01:11:42;100191.78;;;2.59;100.00
804;BME280;25687;49.976;8.240;2022-12-07T01:14:09;100196.84;;;2.59;100.00
804;BME280;25687;49.976;8.240;2022-12-07T01:16:34;100183.22;;;2.65;100.00
804;BME280;25687;49.976;8.240;2022-12-07T01:19:03;100189.72;;;2.77;100.00
804;BME280;25687;49.976;8.240;2022-12-07T01:21:32;100189.66;;;2.80;100.00
804;BME280;25687;49.976;8.240;2022-12-07T01:24:04;100188.28;;;2.65;100.00
804;BME280;25687;49.976;8.240;2022-12-07T01:26:30;100186.44;;;2.71;100.00
804;BME280;25687;49.976;8.240;2022-12-07T01:28:55;100185.31;;;2.85;100.00
804;BME280;25687;49.976;8.240;2022-12-07T01:31:24;100183.16;;;2.66;100.00
804;BME280;25687;49.976;8.240;2022-12-07T01:33:52;100187.75;;;2.49;100.00
804;BME280;25687;49.976;8.240;2022-12-07T01:36:19;100189.66;;;2.37;100.00
804;BME280;25687;49.976;8.240;2022-12-07T01:38:47;100185.28;;;2.46;100.00
804;BME280;25687;49.976;8.240;2022-12-07T01:41:19;100187.00;;;2.44;100.00
804;BME280;25687;49.976;8.240;2022-12-07T01:46:35;100193.44;;;2.60;100.00
804;BME280;25687;49.976;8.240;2022-12-07T01:49:02;100186.81;;;2.54;100.00
804;BME280;25687;49.976;8.240;2022-12-07T01:51:28;100187.06;;;2.42;100.00
804;BME280;25687;49.976;8.240;2022-12-07T01:53:57;100191.06;;;2.52;100.00
804;BME280;25687;49.976;8.240;2022-12-07T01:56:26;100185.53;;;2.74;100.00
804;BME280;25687;49.976;8.240;2022-12-07T01:58:54;100181.25;;;2.78;100.00
804;BME280;25687;49.976;8.240;2022-12-07T02:01:23;100179.84;;;2.63;100.00
804;BME280;25687;49.976;8.240;2022-12-07T02:03:49;100176.41;;;2.65;100.00
804;BME280;25687;49.976;8.240;2022-12-07T02:06:17;100178.16;;;2.63;100.00
804;BME280;25687;49.976;8.240;2022-12-07T02:08:45;100178.00;;;2.71;100.00
804;BME280;25687;49.976;8.240;2022-12-07T02:11:11;100176.09;;;2.81;100.00
804;BME280;25687;49.976;8.240;2022-12-07T02:13:38;100165.09;;;2.80;100.00
804;BME280;25687;49.976;8.240;2022-12-07T02:22:11;100163.31;;;2.84;100.00
804;BME280;25687;49.976;8.240;2022-12-07T02:25:04;100162.28;;;2.93;100.00
804;BME280;25687;49.976;8.240;2022-12-07T02:27:43;100160.06;;;2.79;100.00
804;BME280;25687;49.976;8.240;2022-12-07T02:30:15;100157.25;;;2.91;100.00
804;BME280;25687;49.976;8.240;2022-12-07T02:32:55;100159.25;;;2.77;100.00
804;BME280;25687;49.976;8.240;2022-12-07T02:38:16;100156.06;;;3.06;100.00
804;BME280;25687;49.976;8.240;2022-12-07T02:40:50;100152.31;;;3.22;100.00
804;BME280;25687;49.976;8.240;2022-12-07T02:43:23;100157.66;;;3.12;100.00
804;BME280;25687;49.976;8.240;2022-12-07T02:46:14;100151.03;;;3.04;100.00
804;BME280;25687;49.976;8.240;2022-12-07T02:48:41;100155.94;;;3.12;100.00
804;BME280;25687;49.976;8.240;2022-12-07T02:51:08;100145.66;;;3.17;100.00
804;BME280;25687;49.976;8.240;2022-12-07T02:53:42;100143.00;;;2.84;100.00
804;BME280;25687;49.976;8.240;2022-12-07T02:56:17;100139.59;;;2.85;100.00
804;BME280;25687;49.976;8.240;2022-12-07T02:59:00;100145.44;;;2.88;100.00
804;BME280;25687;49.976;8.240;2022-12-07T03:04:33;100131.22;;;3.19;100.00
804;BME280;25687;49.976;8.240;2022-12-07T03:07:10;100136.59;;;3.05;100.00
804;BME280;25687;49.976;8.240;2022-12-07T03:09:51;100140.03;;;3.04;100.00
804;BME280;25687;49.976;8.240;2022-12-07T03:12:44;100134.97;;;3.02;100.00
804;BME280;25687;49.976;8.240;2022-12-07T03:18:22;100130.50;;;3.12;100.00
804;BME280;25687;49.976;8.240;2022-12-07T03:20:51;100125.25;;;3.20;100.00
804;BME280;25687;49.976;8.240;2022-12-07T03:23:18;100126.00;;;3.25;100.00
804;BME280;25687;49.976;8.240;2022-12-07T03:25:52;100124.22;;;3.27;100.00
804;BME280;25687;49.976;8.240;2022-12-07T03:28:20;100121.09;;;3.16;100.00
804;BME280;25687;49.976;8.240;2022-12-07T03:31:17;100121.72;;;3.26;100.00
804;BME280;25687;49.976;8.240;2022-12-07T03:34:07;100121.66;;;3.29;100.00
804;BME280;25687;49.976;8.240;2022-12-07T03:37:10;100127.06;;;3.15;100.00
804;BME280;25687;49.976;8.240;2022-12-07T03:39:57;100123.66;;;3.16;100.00
804;BME280;25687;49.976;8.240;2022-12-07T03:42:26;100120.78;;;3.30;100.00
804;BME280;25687;49.976;8.240;2022-12-07T03:44:55;100118.03;;;3.39;100.00
804;BME280;25687;49.976;8.240;2022-12-07T03:47:30;100120.31;;;3.48;100.00
804;BME280;25687;49.976;8.240;2022-12-07T03:50:02;100116.84;;;3.52;100.00
804;BME280;25687;49.976;8.240;2022-12-07T03:55:06;100112.69;;;3.48;100.00
804;BME280;25687;49.976;8.240;2022-12-07T03:57:34;100113.25;;;3.60;100.00
804;BME280;25687;49.976;8.240;2022-12-07T04:00:06;100109.72;;;3.65;100.00
804;BME280;25687;49.976;8.240;2022-12-07T04:02:32;100108.91;;;3.65;100.00
804;BME280;25687;49.976;8.240;2022-12-07T04:04:59;100104.63;;;3.65;100.00
804;BME280;25687;49.976;8.240;2022-12-07T04:07:24;100105.47;;;3.66;100.00
804;BME280;25687;49.976;8.240;2022-12-07T04:09:50;100109.53;;;3.73;100.00
804;BME280;25687;49.976;8.240;2022-12-07T04:12:15;100108.09;;;3.63;100.00
804;BME280;25687;49.976;8.240;2022-12-07T04:14:40;100110.88;;;3.53;100.00
804;BME280;25687;49.976;8.240;2022-12-07T04:17:06;100110.91;;;3.52;100.00
804;BME280;25687;49.976;8.240;2022-12-07T04:19:35;100116.03;;;3.50;100.00
804;BME280;25687;49.976;8.240;2022-12-07T04:22:02;100112.13;;;3.37;100.00
804;BME280;25687;49.976;8.240;2022-12-07T04:24:29;100110.00;;;3.54;100.00
804;BME280;25687;49.976;8.240;2022-12-07T04:26:57;100117.56;;;3.58;100.00
804;BME280;25687;49.976;8.240;2022-12-07T04:29:23;100110.09;;;3.51;100.00
804;BME280;25687;49.976;8.240;2022-12-07T04:31:49;100112.69;;;3.48;100.00
804;BME280;25687;49.976;8.240;2022-12-07T04:34:15;100109.78;;;3.64;100.00
804;BME280;25687;49.976;8.240;2022-12-07T04:36:43;100115.72;;;3.63;100.00
804;BME280;25687;49.976;8.240;2022-12-07T04:39:18;100112.44;;;3.59;100.00
804;BME280;25687;49.976;8.240;2022-12-07T04:41:44;100114.00;;;3.63;100.00
804;BME280;25687;49.976;8.240;2022-12-07T04:44:09;100112.53;;;3.56;100.00
804;BME280;25687;49.976;8.240;2022-12-07T04:46:35;100108.38;;;3.52;100.00
804;BME280;25687;49.976;8.240;2022-12-07T04:49:00;100104.75;;;3.62;100.00
804;BME280;25687;49.976;8.240;2022-12-07T04:51:27;100100.53;;;3.60;100.00
804;BME280;25687;49.976;8.240;2022-12-07T04:53:54;100107.44;;;3.56;100.00
804;BME280;25687;49.976;8.240;2022-12-07T04:56:23;100108.31;;;3.53;100.00
804;BME280;25687;49.976;8.240;2022-12-07T04:58:51;100108.00;;;3.66;100.00
804;BME280;25687;49.976;8.240;2022-12-07T05:01:18;100105.31;;;3.72;100.00
804;BME280;25687;49.976;8.240;2022-12-07T05:03:53;100106.97;;;3.75;100.00
804;BME280;25687;49.976;8.240;2022-12-07T05:06:31;100102.84;;;3.69;100.00
804;BME280;25687;49.976;8.240;2022-12-07T05:09:05;100105.91;;;3.82;100.00
804;BME280;25687;49.976;8.240;2022-12-07T05:11:31;100105.66;;;3.91;100.00
804;BME280;25687;49.976;8.240;2022-12-07T05:14:14;100102.16;;;3.95;100.00
804;BME280;25687;49.976;8.240;2022-12-07T05:16:43;100105.56;;;3.94;100.00
804;BME280;25687;49.976;8.240;2022-12-07T05:19:09;100106.66;;;3.85;100.00
804;BME280;25687;49.976;8.240;2022-12-07T05:21:35;100107.19;;;3.97;100.00
804;BME280;25687;49.976;8.240;2022-12-07T05:24:01;100114.28;;;3.87;100.00
804;BME280;25687;49.976;8.240;2022-12-07T05:26:27;100106.63;;;3.87;100.00
804;BME280;25687;49.976;8.240;2022-12-07T05:28:59;100103.50;;;3.77;100.00
804;BME280;25687;49.976;8.240;2022-12-07T05:31:27;100109.09;;;3.90;100.00
804;BME280;25687;49.976;8.240;2022-12-07T05:33:53;100105.56;;;3.94;100.00
804;BME280;25687;49.976;8.240;2022-12-07T05:36:20;100110.53;;;3.99;100.00
804;BME280;25687;49.976;8.240;2022-12-07T05:38:48;100108.72;;;4.04;100.00
804;BME280;25687;49.976;8.240;2022-12-07T05:41:16;100109.84;;;3.94;100.00
804;BME280;25687;49.976;8.240;2022-12-07T05:44:00;100108.81;;;4.01;100.00
804;BME280;25687;49.976;8.240;2022-12-07T05:46:26;100113.03;;;4.02;100.00
804;BME280;25687;49.976;8.240;2022-12-07T05:48:52;100111.94;;;4.11;100.00
804;BME280;25687;49.976;8.240;2022-12-07T05:51:17;100109.56;;;4.03;100.00
804;BME280;25687;49.976;8.240;2022-12-07T05:53:43;100114.72;;;4.01;100.00
804;BME280;25687;49.976;8.240;2022-12-07T05:56:21;100108.75;;;4.02;100.00
804;BME280;25687;49.976;8.240;2022-12-07T05:58:49;100114.13;;;3.93;100.00
804;BME280;25687;49.976;8.240;2022-12-07T06:01:33;100108.53;;;3.79;100.00
804;BME280;25687;49.976;8.240;2022-12-07T06:03:59;100117.75;;;3.83;100.00
804;BME280;25687;49.976;8.240;2022-12-07T06:06:24;100111.25;;;3.72;100.00
804;BME280;25687;49.976;8.240;2022-12-07T06:08:50;100103.50;;;3.77;100.00
804;BME280;25687;49.976;8.240;2022-12-07T06:11:15;100106.66;;;3.85;100.00
804;BME280;25687;49.976;8.240;2022-12-07T06:14:00;100104.88;;;3.89;100.00
804;BME280;25687;49.976;8.240;2022-12-07T06:16:25;100105.28;;;4.05;100.00
804;BME280;25687;49.976;8.240;2022-12-07T06:18:50;100105.41;;;4.00;100.00
804;BME280;25687;49.976;8.240;2022-12-07T06:21:16;100104.53;;;4.01;100.00
804;BME280;25687;49.976;8.240;2022-12-07T06:23:43;100103.72;;;3.99;100.00
804;BME280;25687;49.976;8.240;2022-12-07T06:26:09;100105.56;;;3.94;100.00
804;BME280;25687;49.976;8.240;2022-12-07T06:28:34;100113.19;;;3.96;100.00
804;BME280;25687;49.976;8.240;2022-12-07T06:31:01;100105.03;;;3.83;100.00
804;BME280;25687;49.976;8.240;2022-12-07T06:33:27;100110.50;;;4.00;100.00
804;BME280;25687;49.976;8.240;2022-12-07T06:35:52;100113.03;;;4.00;100.00
804;BME280;25687;49.976;8.240;2022-12-07T06:38:18;100109.91;;;3.91;100.00
804;BME280;25687;49.976;8.240;2022-12-07T06:40:43;100115.25;;;3.81;100.00
804;BME280;25687;49.976;8.240;2022-12-07T06:43:09;100108.50;;;3.80;100.00
804;BME280;25687;49.976;8.240;2022-12-07T06:45:34;100104.31;;;3.78;100.00
804;BME280;25687;49.976;8.240;2022-12-07T06:47:59;100099.28;;;3.76;100.00
804;BME280;25687;49.976;8.240;2022-12-07T06:50:24;100113.59;;;3.80;100.00
804;BME280;25687;49.976;8.240;2022-12-07T06:52:51;100107.44;;;3.54;100.00
804;BME280;25687;49.976;8.240;2022-12-07T06:55:16;100113.41;;;3.55;100.00
804;BME280;25687;49.976;8.240;2022-12-07T06:57:41;100116.41;;;3.35;100.00
804;BME280;25687;49.976;8.240;2022-12-07T07:00:07;100120.63;;;3.37;100.00
804;BME280;25687;49.976;8.240;2022-12-07T07:02:32;100116.53;;;3.30;100.00
804;BME280;25687;49.976;8.240;2022-12-07T07:04:58;100122.25;;;3.40;100.00
804;BME280;25687;49.976;8.240;2022-12-07T07:07:23;100127.63;;;3.28;100.00
804;BME280;25687;49.976;8.240;2022-12-07T07:09:48;100116.75;;;3.21;100.00
804;BME280;25687;49.976;8.240;2022-12-07T07:12:14;100119.56;;;3.45;100.00
804;BME280;25687;49.976;8.240;2022-12-07T07:14:39;100121.94;;;3.52;100.00
804;BME280;25687;49.976;8.240;2022-12-07T07:17:04;100126.72;;;3.63;100.00
804;BME280;25687;49.976;8.240;2022-12-07T07:19:29;100127.31;;;3.75;100.00
804;BME280;25687;49.976;8.240;2022-12-07T07:21:55;100121.22;;;3.80;100.00
804;BME280;25687;49.976;8.240;2022-12-07T07:24:20;100126.16;;;3.86;100.00
804;BME280;25687;49.976;8.240;2022-12-07T07:26:45;100126.34;;;3.79;100.00
804;BME280;25687;49.976;8.240;2022-12-07T07:29:10;100132.97;;;3.86;100.00
804;BME280;25687;49.976;8.240;2022-12-07T07:31:36;100134.59;;;3.88;100.00
804;BME280;25687;49.976;8.240;2022-12-07T07:34:02;100130.41;;;3.86;100.00
804;BME280;25687;49.976;8.240;2022-12-07T07:36:27;100138.75;;;3.91;100.00
804;BME280;25687;49.976;8.240;2022-12-07T07:38:52;100134.38;;;3.96;100.00
804;BME280;25687;49.976;8.240;2022-12-07T07:41:18;100138.00;;;3.87;100.00
804;BME280;25687;49.976;8.240;2022-12-07T07:43:43;100127.88;;;3.86;100.00
804;BME280;25687;49.976;8.240;2022-12-07T07:46:09;100137.63;;;4.01;100.00
804;BME280;25687;49.976;8.240;2022-12-07T07:48:34;100133.47;;;3.99;100.00
804;BME280;25687;49.976;8.240;2022-12-07T07:50:59;100141.53;;;4.15;100.00
804;BME280;25687;49.976;8.240;2022-12-07T07:53:25;100149.66;;;3.96;100.00
804;BME280;25687;49.976;8.240;2022-12-07T07:55:53;100147.84;;;4.00;100.00
804;BME280;25687;49.976;8.240;2022-12-07T07:58:19;100141.97;;;3.98;100.00
804;BME280;25687;49.976;8.240;2022-12-07T08:00:45;100137.91;;;3.91;100.00
804;BME280;25687;49.976;8.240;2022-12-07T08:03:10;100141.72;;;4.07;100.00
804;BME280;25687;49.976;8.240;2022-12-07T08:05:36;100146.72;;;4.10;100.00
804;BME280;25687;49.976;8.240;2022-12-07T08:08:02;100146.28;;;3.96;100.00
804;BME280;25687;49.976;8.240;2022-12-07T08:10:27;100147.44;;;4.15;100.00
804;BME280;25687;49.976;8.240;2022-12-07T08:12:53;100139.94;;;4.11;100.00
804;BME280;25687;49.976;8.240;2022-12-07T08:15:40;100142.94;;;4.25;100.00
804;BME280;25687;49.976;8.240;2022-12-07T08:18:06;100143.44;;;4.38;100.00
804;BME280;25687;49.976;8.240;2022-12-07T08:20:32;100146.50;;;4.49;100.00
804;BME280;25687;49.976;8.240;2022-12-07T08:22:58;100146.06;;;4.65;100.00
804;BME280;25687;49.976;8.240;2022-12-07T08:25:24;100145.00;;;4.72;100.00
804;BME280;25687;49.976;8.240;2022-12-07T08:27:50;100148.41;;;4.73;100.00
804;BME280;25687;49.976;8.240;2022-12-07T08:30:15;100148.47;;;4.98;100.00
804;BME280;25687;49.976;8.240;2022-12-07T08:32:41;100146.88;;;4.95;100.00
804;BME280;25687;49.976;8.240;2022-12-07T08:35:07;100151.75;;;4.73;100.00
804;BME280;25687;49.976;8.240;2022-12-07T08:37:33;100147.19;;;4.84;100.00
804;BME280;25687;49.976;8.240;2022-12-07T08:39:58;100154.94;;;4.51;100.00
804;BME280;25687;49.976;8.240;2022-12-07T08:42:23;100154.31;;;4.73;100.00
804;BME280;25687;49.976;8.240;2022-12-07T08:44:55;100154.50;;;4.95;100.00
804;BME280;25687;49.976;8.240;2022-12-07T08:47:21;100163.28;;;5.15;100.00
804;BME280;25687;49.976;8.240;2022-12-07T08:49:47;100159.56;;;5.52;100.00
804;BME280;25687;49.976;8.240;2022-12-07T08:52:15;100155.50;;;6.92;100.00
804;BME280;25687;49.976;8.240;2022-12-07T08:54:41;100157.16;;;8.58;100.00
804;BME280;25687;49.976;8.240;2022-12-07T08:57:08;100148.94;;;9.77;100.00
804;BME280;25687;49.976;8.240;2022-12-07T08:59:35;100149.50;;;9.31;100.00
804;BME280;25687;49.976;8.240;2022-12-07T09:02:01;100157.50;;;9.25;100.00
804;BME280;25687;49.976;8.240;2022-12-07T09:04:27;100152.31;;;9.27;100.00
804;BME280;25687;49.976;8.240;2022-12-07T09:06:53;100156.06;;;9.72;100.00
804;BME280;25687;49.976;8.240;2022-12-07T09:09:19;100153.75;;;10.34;100.00
804;BME280;25687;49.976;8.240;2022-12-07T09:11:44;100159.31;;;9.58;100.00
804;BME280;25687;49.976;8.240;2022-12-07T09:14:10;100152.00;;;9.15;100.00
804;BME280;25687;49.976;8.240;2022-12-07T09:16:35;100149.25;;;9.01;100.00
804;BME280;25687;49.976;8.240;2022-12-07T09:19:01;100160.63;;;8.17;100.00
804;BME280;25687;49.976;8.240;2022-12-07T09:21:26;100156.38;;;7.97;100.00
804;BME280;25687;49.976;8.240;2022-12-07T09:23:52;100160.34;;;8.63;100.00
804;BME280;25687;49.976;8.240;2022-12-07T09:26:17;100156.88;;;10.57;100.00
804;BME280;25687;49.976;8.240;2022-12-07T09:28:42;100157.22;;;12.19;88.88
804;BME280;25687;49.976;8.240;2022-12-07T09:31:08;100150.44;;;13.15;75.00
804;BME280;25687;49.976;8.240;2022-12-07T09:33:33;100151.38;;;14.18;65.65
804;BME280;25687;49.976;8.240;2022-12-07T09:35:58;100155.22;;;14.13;62.77
804;BME280;25687;49.976;8.240;2022-12-07T09:38:24;100159.09;;;14.44;61.09
804;BME280;25687;49.976;8.240;2022-12-07T09:40:52;100155.53;;;13.69;59.50
804;BME280;25687;49.976;8.240;2022-12-07T09:43:22;100156.69;;;12.98;62.77
804;BME280;25687;49.976;8.240;2022-12-07T09:45:51;100155.91;;;12.83;65.84
804;BME280;25687;49.976;8.240;2022-12-07T09:48:21;100160.97;;;13.52;63.02
804;BME280;25687;49.976;8.240;2022-12-07T09:50:48;100160.06;;;13.79;63.15
804;BME280;25687;49.976;8.240;2022-12-07T09:53:29;100163.56;;;14.79;54.95
804;BME280;25687;49.976;8.240;2022-12-07T09:55:55;100165.66;;;14.61;54.37
804;BME280;25687;49.976;8.240;2022-12-07T09:58:26;100159.56;;;13.74;58.67
804;BME280;25687;49.976;8.240;2022-12-07T10:00:59;100149.84;;;13.37;62.09
804;BME280;25687;49.976;8.240;2022-12-07T10:03:28;100157.06;;;11.92;73.74
804;BME280;25687;49.976;8.240;2022-12-07T10:05:54;100147.91;;;10.15;89.17
804;BME280;25687;49.976;8.240;2022-12-07T10:08:20;100146.03;;;9.32;98.88
804;BME280;25687;49.976;8.240;2022-12-07T10:10:50;100140.84;;;8.21;100.00
804;BME280;25687;49.976;8.240;2022-12-07T10:13:21;100140.44;;;7.90;100.00
804;BME280;25687;49.976;8.240;2022-12-07T10:15:54;100132.78;;;7.70;100.00
804;BME280;25687;49.976;8.240;2022-12-07T10:20:48;100135.97;;;7.11;100.00
804;BME280;25687;49.976;8.240;2022-12-07T10:23:16;100130.69;;;6.94;100.00
804;BME280;25687;49.976;8.240;2022-12-07T10:25:41;100125.09;;;6.84;100.00
804;BME280;25687;49.976;8.240;2022-12-07T10:30:33;100117.91;;;6.26;100.00
804;BME280;25687;49.976;8.240;2022-12-07T10:33:35;100109.97;;;5.85;100.00
804;BME280;25687;49.976;8.240;2022-12-07T10:36:17;100112.06;;;5.73;100.00
804;BME280;25687;49.976;8.240;2022-12-07T10:38:46;100110.34;;;5.48;100.00
804;BME280;25687;49.976;8.240;2022-12-07T10:41:12;100106.50;;;5.35;100.00
804;BME280;25687;49.976;8.240;2022-12-07T10:43:46;100107.13;;;5.42;100.00
804;BME280;25687;49.976;8.240;2022-12-07T10:46:25;100105.47;;;5.41;100.00
804;BME280;25687;49.976;8.240;2022-12-07T10:52:26;100100.13;;;5.48;100.00
804;BME280;25687;49.976;8.240;2022-12-07T11:02:30;100103.44;;;5.25;100.00
804;BME280;25687;49.976;8.240;2022-12-07T11:05:11;100097.84;;;5.14;100.00
804;BME280;25687;49.976;8.240;2022-12-07T11:07:52;100093.03;;;5.31;100.00
804;BME280;25687;49.976;8.240;2022-12-07T11:10:31;100092.59;;;5.19;100.00
804;BME280;25687;49.976;8.240;2022-12-07T11:13:04;100094.84;;;5.28;100.00
804;BME280;25687;49.976;8.240;2022-12-07T11:18:20;100081.34;;;5.51;100.00
804;BME280;25687;49.976;8.240;2022-12-07T11:21:05;100086.06;;;5.62;100.00
804;BME280;25687;49.976;8.240;2022-12-07T11:23:52;100087.50;;;5.69;100.00
804;BME280;25687;49.976;8.240;2022-12-07T11:34:29;100081.00;;;5.86;100.00
804;BME280;25687;49.976;8.240;2022-12-07T11:36:57;100071.22;;;5.73;100.00
804;BME280;25687;49.976;8.240;2022-12-07T11:39:24;100078.75;;;5.76;100.00
804;BME280;25687;49.976;8.240;2022-12-07T11:42:14;100071.25;;;5.97;100.00
804;BME280;25687;49.976;8.240;2022-12-07T11:44:51;100068.59;;;6.24;100.00
804;BME280;25687;49.976;8.240;2022-12-07T11:52:44;100066.16;;;6.21;100.00
804;BME280;25687;49.976;8.240;2022-12-07T11:55:24;100058.78;;;6.13;100.00
804;BME280;25687;49.976;8.240;2022-12-07T11:57:58;100055.00;;;6.00;100.00
804;BME280;25687;49.976;8.240;2022-12-07T12:00:27;100052.94;;;5.84;100.00
804;BME280;25687;49.976;8.240;2022-12-07T12:03:03;100053.38;;;5.72;100.00
804;BME280;25687;49.976;8.240;2022-12-07T12:05:31;100056.44;;;5.81;100.00
804;BME280;25687;49.976;8.240;2022-12-07T12:11:02;100058.53;;;5.95;100.00
804;BME280;25687;49.976;8.240;2022-12-07T12:19:19;100045.72;;;5.72;100.00
804;BME280;25687;49.976;8.240;2022-12-07T12:21:49;100047.06;;;5.58;100.00
804;BME280;25687;49.976;8.240;2022-12-07T12:24:23;100043.38;;;5.67;100.00
804;BME280;25687;49.976;8.240;2022-12-07T12:26:53;100039.59;;;5.77;100.00
804;BME280;25687;49.976;8.240;2022-12-07T12:29:28;100028.41;;;5.56;100.00
804;BME280;25687;49.976;8.240;2022-12-07T12:32:15;100028.72;;;5.47;100.00
804;BME280;25687;49.976;8.240;2022-12-07T12:42:58;100025.38;;;5.70;100.00
804;BME280;25687;49.976;8.240;2022-12-07T12:45:33;100026.81;;;5.77;100.00
804;BME280;25687;49.976;8.240;2022-12-07T12:50:33;100014.00;;;6.04;100.00
804;BME280;25687;49.976;8.240;2022-12-07T13:00:47;99999.69;;;6.22;100.00
804;BME280;25687;49.976;8.240;2022-12-07T13:03:27;100000.44;;;6.02;100.00
804;BME280;25687;49.976;8.240;2022-12-07T13:08:56;99992.25;;;6.16;100.00
804;BME280;25687;49.976;8.240;2022-12-07T13:11:36;99988.16;;;6.12;100.00
804;BME280;25687;49.976;8.240;2022-12-07T13:17:02;99983.41;;;6.47;100.00
804;BME280;25687;49.976;8.240;2022-12-07T13:25:04;99978.47;;;6.85;100.00
804;BME280;25687;49.976;8.240;2022-12-07T13:27:33;99978.47;;;6.85;100.00
804;BME280;25687;49.976;8.240;2022-12-07T13:29:59;99988.13;;;6.99;100.00
804;BME280;25687;49.976;8.240;2022-12-07T13:32:29;99981.28;;;7.20;100.00
804;BME280;25687;49.976;8.240;2022-12-07T13:34:55;99974.72;;;7.15;100.00
804;BME280;25687;49.976;8.240;2022-12-07T13:37:25;99980.91;;;7.09;100.00
804;BME280;25687;49.976;8.240;2022-12-07T13:42:29;99977.56;;;7.07;100.00
804;BME280;25687;49.976;8.240;2022-12-07T13:44:57;99976.13;;;7.22;100.00
804;BME280;25687;49.976;8.240;2022-12-07T13:47:30;99974.91;;;7.31;100.00
804;BME280;25687;49.976;8.240;2022-12-07T13:49:58;99977.47;;;7.10;100.00
804;BME280;25687;49.976;8.240;2022-12-07T13:52:26;99978.09;;;6.94;100.00
804;BME280;25687;49.976;8.240;2022-12-07T13:54:57;99980.66;;;6.74;100.00
804;BME280;25687;49.976;8.240;2022-12-07T13:57:28;99977.72;;;6.40;100.00
804;BME280;25687;49.976;8.240;2022-12-07T13:59:56;99973.00;;;6.52;100.00
804;BME280;25687;49.976;8.240;2022-12-07T14:02:29;99974.28;;;6.62;100.00
804;BME280;25687;49.976;8.240;2022-12-07T14:05:14;99970.78;;;6.42;100.00
804;BME280;25687;49.976;8.240;2022-12-07T14:13:35;99970.94;;;6.17;100.00
804;BME280;25687;49.976;8.240;2022-12-07T14:16:03;99971.56;;;6.22;100.00
804;BME280;25687;49.976;8.240;2022-12-07T14:18:34;99966.38;;;6.25;100.00
804;BME280;25687;49.976;8.240;2022-12-07T14:26:56;99977.88;;;5.90;100.00
804;BME280;25687;49.976;8.240;2022-12-07T14:31:50;99971.47;;;6.03;100.00
804;BME280;25687;49.976;8.240;2022-12-07T14:34:15;99968.53;;;6.12;100.00
804;BME280;25687;49.976;8.240;2022-12-07T14:36:40;99963.84;;;6.24;100.00
804;BME280;25687;49.976;8.240;2022-12-07T14:39:06;99966.38;;;6.25;100.00
804;BME280;25687;49.976;8.240;2022-12-07T14:41:31;99962.44;;;6.17;100.00
804;BME280;25687;49.976;8.240;2022-12-07T14:44:15;99963.16;;;6.20;100.00
804;BME280;25687;49.976;8.240;2022-12-07T14:46:40;99971.72;;;5.95;100.00
804;BME280;25687;49.976;8.240;2022-12-07T14:49:05;99976.13;;;5.68;100.00
804;BME280;25687;49.976;8.240;2022-12-07T14:51:32;99973.78;;;5.62;100.00
804;BME280;25687;49.976;8.240;2022-12-07T14:53:58;99973.66;;;5.41;100.00
804;BME280;25687;49.976;8.240;2022-12-07T14:56:24;99970.13;;;5.20;100.00
804;BME280;25687;49.976;8.240;2022-12-07T14:58:50;99973.53;;;5.44;100.00
804;BME280;25687;49.976;8.240;2022-12-07T15:01:15;99967.28;;;5.53;100.00
804;BME280;25687;49.976;8.240;2022-12-07T15:03:40;99959.09;;;5.45;100.00
804;BME280;25687;49.976;8.240;2022-12-07T15:06:06;99968.00;;;5.57;100.00
804;BME280;25687;49.976;8.240;2022-12-07T15:08:33;99968.19;;;5.52;100.00
804;BME280;25687;49.976;8.240;2022-12-07T15:10:59;99966.16;;;5.60;100.00